Time;durP1;ratioP1;P1;durP2;ratioP2;P2;SDS_P1;SDS_P2;PMS_P1;PMS_P2;Temp;Humidity;BMP_temperature;BMP_pressure;BME280_temperature;BME280_humidity;BME280_pressure;Samples;Min_cycle;Max_cycle;Signal;HPM_P1;HPM_P2
2022/12/05 00:02:11;;;;;;;13.83;4.27;;;;;;;;;;5096832;28;20207;-64
2022/12/05 00:04:38;;;;;;;7.40;4.03;;;;;;;;;;5094046;28;20202;-63
2022/12/05 00:07:06;;;;;;;7.73;4.73;;;;;;;;;;5097620;28;20594;-64
2022/12/05 00:09:34;;;;;;;10.40;5.23;;;;;;;;;;5093753;28;20195;-63
2022/12/05 00:12:01;;;;;;;7.93;5.00;;;;;;;;;;5095189;28;20206;-64
2022/12/05 00:14:28;;;;;;;8.03;5.67;;;;;;;;;;5101750;28;20217;-63
2022/12/05 00:16:55;;;;;;;6.37;4.40;;;;;;;;;;5112337;28;20589;-64
2022/12/05 00:19:22;;;;;;;7.33;4.57;;;;;;;;;;5110155;28;20204;-63
2022/12/05 00:21:49;;;;;;;6.70;3.77;;;;;;;;;;5111465;28;20198;-63
2022/12/05 00:24:18;;;;;;;6.50;5.10;;;;;;;;;;5112104;28;20200;-63
2022/12/05 00:26:46;;;;;;;7.77;5.27;;;;;;;;;;5112020;28;20307;-63
2022/12/05 00:29:13;;;;;;;9.83;4.77;;;;;;;;;;5104936;28;20206;-63
2022/12/05 00:31:40;;;;;;;7.50;4.63;;;;;;;;;;5094176;28;20668;-63
2022/12/05 00:34:08;;;;;;;11.03;5.30;;;;;;;;;;5104560;28;20214;-63
2022/12/05 00:36:35;;;;;;;9.67;5.43;;;;;;;;;;5092085;28;20206;-64
2022/12/05 00:39:05;;;;;;;10.13;5.33;;;;;;;;;;5092716;28;20288;-64
2022/12/05 00:41:32;;;;;;;10.83;5.20;;;;;;;;;;5109100;28;20202;-63
2022/12/05 00:44:01;;;;;;;8.87;4.87;;;;;;;;;;5102886;28;20222;-63
2022/12/05 00:46:29;;;;;;;7.07;3.93;;;;;;;;;;5091934;28;20213;-63
2022/12/05 00:48:57;;;;;;;5.40;3.77;;;;;;;;;;5099267;28;20193;-63
2022/12/05 00:51:25;;;;;;;10.43;4.80;;;;;;;;;;5092930;28;20195;-63
2022/12/05 00:53:55;;;;;;;7.67;4.87;;;;;;;;;;5091742;28;20202;-63
2022/12/05 00:56:22;;;;;;;11.27;5.20;;;;;;;;;;5105104;28;20225;-63
2022/12/05 00:58:50;;;;;;;9.60;5.40;;;;;;;;;;5095820;28;20226;-63
2022/12/05 01:01:20;;;;;;;7.87;4.63;;;;;;;;;;5100997;28;20206;-63
2022/12/05 01:03:47;;;;;;;11.53;4.90;;;;;;;;;;5094207;28;20229;-63
2022/12/05 01:06:15;;;;;;;6.13;4.40;;;;;;;;;;5104691;28;20584;-64
2022/12/05 01:08:42;;;;;;;9.13;5.67;;;;;;;;;;5107118;28;20229;-63
2022/12/05 01:11:11;;;;;;;11.43;5.50;;;;;;;;;;5109043;28;20213;-63
2022/12/05 01:13:38;;;;;;;5.90;3.87;;;;;;;;;;5099479;28;20199;-63
2022/12/05 01:16:05;;;;;;;11.63;4.90;;;;;;;;;;5091554;28;20206;-63
2022/12/05 01:18:34;;;;;;;9.30;5.07;;;;;;;;;;5094640;28;20224;-64
2022/12/05 01:21:01;;;;;;;11.20;5.00;;;;;;;;;;5109282;28;20209;-64
2022/12/05 01:23:28;;;;;;;9.00;5.13;;;;;;;;;;5091164;28;20206;-63
2022/12/05 01:25:55;;;;;;;9.60;5.47;;;;;;;;;;5092437;28;20218;-64
2022/12/05 01:28:22;;;;;;;9.00;3.90;;;;;;;;;;5094563;28;20202;-64
2022/12/05 01:30:50;;;;;;;11.63;5.23;;;;;;;;;;5107319;28;20751;-64
2022/12/05 01:33:18;;;;;;;9.40;4.37;;;;;;;;;;5109462;28;20292;-63
2022/12/05 01:35:46;;;;;;;7.97;4.50;;;;;;;;;;5110954;28;20541;-63
2022/12/05 01:38:13;;;;;;;7.07;4.67;;;;;;;;;;5092010;28;20700;-63
2022/12/05 01:40:41;;;;;;;7.27;4.93;;;;;;;;;;5110296;28;20198;-64
2022/12/05 01:43:14;;;;;;;9.63;5.27;;;;;;;;;;5092758;28;20283;-63
2022/12/05 01:45:42;;;;;;;7.60;4.67;;;;;;;;;;5097083;27;20202;-63
2022/12/05 01:48:13;;;;;;;8.43;4.50;;;;;;;;;;5094004;28;20712;-63
2022/12/05 01:50:40;;;;;;;7.00;4.27;;;;;;;;;;5090257;28;20601;-63
2022/12/05 01:53:09;;;;;;;8.80;4.97;;;;;;;;;;5092183;28;20574;-63
2022/12/05 01:55:37;;;;;;;9.40;4.33;;;;;;;;;;5108010;28;20222;-63
2022/12/05 01:58:05;;;;;;;8.63;4.83;;;;;;;;;;5109721;28;20233;-63
2022/12/05 02:00:33;;;;;;;8.57;4.73;;;;;;;;;;5092538;28;20217;-63
2022/12/05 02:03:01;;;;;;;10.53;4.87;;;;;;;;;;5099391;28;20206;-64
2022/12/05 02:05:29;;;;;;;7.60;4.93;;;;;;;;;;5108160;28;20812;-63
2022/12/05 02:07:58;;;;;;;12.43;4.83;;;;;;;;;;5102382;28;20230;-64
2022/12/05 02:10:26;;;;;;;8.37;4.50;;;;;;;;;;5099192;28;20660;-63
2022/12/05 02:12:53;;;;;;;6.90;4.17;;;;;;;;;;5101374;28;20555;-64
2022/12/05 02:15:38;;;;;;;10.03;5.43;;;;;;;;;;5096040;28;20202;-64
2022/12/05 02:18:13;;;;;;;5.33;4.50;;;;;;;;;;5109411;28;20587;-63
2022/12/05 02:20:44;;;;;;;9.37;4.90;;;;;;;;;;5090103;28;20193;-64
2022/12/05 02:23:32;;;;;;;6.37;4.67;;;;;;;;;;5089507;28;20927;-63
2022/12/05 02:26:15;;;;;;;7.17;4.67;;;;;;;;;;5090131;28;20218;-63
2022/12/05 02:28:53;;;;;;;7.93;5.17;;;;;;;;;;5096226;28;20193;-64
2022/12/05 02:31:26;;;;;;;9.10;4.80;;;;;;;;;;5109552;28;20217;-63
2022/12/05 02:33:55;;;;;;;8.03;3.43;;;;;;;;;;5108595;28;20209;-64
2022/12/05 02:36:23;;;;;;;9.97;5.23;;;;;;;;;;5092134;28;20229;-63
2022/12/05 02:38:53;;;;;;;5.83;4.30;;;;;;;;;;5089901;28;20238;-63
2022/12/05 02:41:22;;;;;;;10.83;5.20;;;;;;;;;;5090536;28;20194;-64
2022/12/05 02:43:52;;;;;;;10.30;4.83;;;;;;;;;;5090494;28;20678;-63
2022/12/05 02:46:21;;;;;;;11.37;5.43;;;;;;;;;;5094754;28;20691;-61
2022/12/05 02:48:52;;;;;;;13.30;5.13;;;;;;;;;;5109420;28;20206;-62
2022/12/05 02:51:20;;;;;;;10.37;5.30;;;;;;;;;;5095486;28;20207;-62
2022/12/05 02:53:49;;;;;;;11.70;4.87;;;;;;;;;;5105752;28;20660;-63
2022/12/05 02:56:16;;;;;;;9.10;4.83;;;;;;;;;;5099179;28;20229;-63
2022/12/05 02:58:45;;;;;;;10.73;5.33;;;;;;;;;;5101127;28;20235;-64
2022/12/05 03:01:12;;;;;;;10.27;5.57;;;;;;;;;;5107019;28;20205;-63
2022/12/05 03:03:40;;;;;;;7.63;4.60;;;;;;;;;;5093864;28;20233;-63
2022/12/05 03:06:13;;;;;;;9.53;4.83;;;;;;;;;;5104867;28;20253;-63
2022/12/05 03:08:43;;;;;;;8.20;5.33;;;;;;;;;;5106613;28;20654;-64
2022/12/05 03:11:11;;;;;;;10.50;5.10;;;;;;;;;;5092951;28;20291;-63
2022/12/05 03:13:41;;;;;;;10.77;5.47;;;;;;;;;;5095582;28;20202;-63
2022/12/05 03:16:13;;;;;;;11.67;5.53;;;;;;;;;;5106526;28;20198;-62
2022/12/05 03:18:43;;;;;;;7.37;5.43;;;;;;;;;;5092133;28;20587;-64
2022/12/05 03:21:16;;;;;;;13.93;5.17;;;;;;;;;;5089554;28;20676;-63
2022/12/05 03:23:45;;;;;;;8.93;4.83;;;;;;;;;;5089778;28;20363;-63
2022/12/05 03:26:19;;;;;;;6.60;4.73;;;;;;;;;;5089698;28;20227;-63
2022/12/05 03:28:52;;;;;;;9.53;4.87;;;;;;;;;;5094599;28;20202;-63
2022/12/05 03:31:22;;;;;;;6.50;4.40;;;;;;;;;;5107329;28;20217;-63
2022/12/05 03:33:51;;;;;;;10.67;5.27;;;;;;;;;;5103400;28;20232;-63
2022/12/05 03:36:22;;;;;;;9.60;4.93;;;;;;;;;;5108192;28;20198;-63
2022/12/05 03:38:51;;;;;;;6.00;4.00;;;;;;;;;;5108471;28;20238;-63
2022/12/05 03:41:23;;;;;;;9.53;4.40;;;;;;;;;;5092789;28;20207;-63
2022/12/05 03:43:53;;;;;;;6.23;4.87;;;;;;;;;;5099502;28;20198;-63
2022/12/05 03:46:25;;;;;;;6.27;4.63;;;;;;;;;;5107698;28;20551;-63
2022/12/05 03:48:54;;;;;;;9.53;5.17;;;;;;;;;;5090594;28;20812;-63
2022/12/05 03:51:26;;;;;;;8.27;5.20;;;;;;;;;;5104617;28;20213;-63
2022/12/05 03:53:56;;;;;;;13.10;5.03;;;;;;;;;;5093992;28;20207;-63
2022/12/05 03:56:25;;;;;;;12.43;5.57;;;;;;;;;;5093158;28;20226;-63
2022/12/05 03:58:56;;;;;;;8.23;4.67;;;;;;;;;;5102273;28;20252;-63
2022/12/05 04:01:24;;;;;;;7.70;4.70;;;;;;;;;;5095574;28;20214;-63
2022/12/05 04:03:53;;;;;;;9.50;4.70;;;;;;;;;;5111615;28;20198;-63
2022/12/05 04:06:22;;;;;;;13.13;5.77;;;;;;;;;;5095555;28;20230;-62
2022/12/05 04:08:54;;;;;;;11.30;5.63;;;;;;;;;;5110689;28;20275;-62
2022/12/05 04:11:23;;;;;;;10.27;4.77;;;;;;;;;;5108493;28;20209;-63
2022/12/05 04:13:52;;;;;;;12.97;5.33;;;;;;;;;;5107243;28;20210;-63
2022/12/05 04:19:08;;;;;;;8.93;4.90;;;;;;;;;;5110821;28;20232;-63
2022/12/05 04:21:37;;;;;;;14.37;5.17;;;;;;;;;;5092472;28;20209;-63
2022/12/05 04:26:55;;;;;;;8.30;5.00;;;;;;;;;;5092494;28;20197;-63
2022/12/05 04:29:26;;;;;;;9.07;4.67;;;;;;;;;;5092731;28;20661;-63
2022/12/05 04:31:57;;;;;;;8.13;5.23;;;;;;;;;;5093034;28;20203;-62
2022/12/05 04:34:27;;;;;;;9.10;4.87;;;;;;;;;;5112130;28;20206;-61
2022/12/05 04:36:56;;;;;;;11.27;4.83;;;;;;;;;;5101561;28;20288;-63
2022/12/05 04:39:27;;;;;;;10.33;5.47;;;;;;;;;;5109184;28;20311;-63
2022/12/05 04:41:56;;;;;;;13.63;5.80;;;;;;;;;;5102360;28;20590;-63
2022/12/05 04:44:25;;;;;;;8.93;4.87;;;;;;;;;;5094505;28;20215;-62
2022/12/05 04:46:53;;;;;;;10.63;5.30;;;;;;;;;;5111389;28;20201;-62
2022/12/05 04:49:22;;;;;;;9.83;5.10;;;;;;;;;;5099232;28;20200;-62
2022/12/05 04:51:50;;;;;;;10.87;5.07;;;;;;;;;;5097587;28;20203;-62
2022/12/05 04:54:20;;;;;;;15.27;6.17;;;;;;;;;;5095753;28;20207;-63
2022/12/05 04:56:50;;;;;;;21.53;6.07;;;;;;;;;;5100894;28;20210;-62
2022/12/05 04:59:18;;;;;;;14.03;6.70;;;;;;;;;;5092587;28;20240;-63
2022/12/05 05:01:49;;;;;;;12.23;6.40;;;;;;;;;;5110051;28;20209;-63
2022/12/05 05:04:19;;;;;;;14.57;5.50;;;;;;;;;;5090597;28;20205;-62
2022/12/05 05:06:46;;;;;;;10.60;5.70;;;;;;;;;;5091549;28;20313;-63
2022/12/05 05:09:13;;;;;;;11.20;6.00;;;;;;;;;;5090941;28;20704;-63
2022/12/05 05:11:40;;;;;;;18.50;5.97;;;;;;;;;;5091249;28;20210;-66
2022/12/05 05:14:09;;;;;;;16.07;6.80;;;;;;;;;;5091353;28;20198;-59
2022/12/05 05:16:37;;;;;;;10.03;5.20;;;;;;;;;;5088411;28;20222;-63
2022/12/05 05:19:05;;;;;;;13.07;5.83;;;;;;;;;;5089231;28;20569;-64
2022/12/05 05:21:34;;;;;;;10.43;5.43;;;;;;;;;;5090865;28;20217;-63
2022/12/05 05:24:01;;;;;;;16.70;6.33;;;;;;;;;;5090864;28;20217;-63
2022/12/05 05:26:30;;;;;;;20.43;6.87;;;;;;;;;;5089701;28;20196;-61
2022/12/05 05:28:58;;;;;;;9.30;5.07;;;;;;;;;;5088508;28;20197;-61
2022/12/05 05:31:26;;;;;;;12.50;5.80;;;;;;;;;;5110152;28;20223;-63
2022/12/05 05:33:54;;;;;;;8.70;5.13;;;;;;;;;;5103929;28;20246;-63
2022/12/05 05:36:22;;;;;;;12.33;5.90;;;;;;;;;;5111301;28;20210;-64
2022/12/05 05:38:50;;;;;;;17.20;6.27;;;;;;;;;;5110289;28;20222;-63
2022/12/05 05:41:18;;;;;;;12.93;6.50;;;;;;;;;;5109084;28;20205;-63
2022/12/05 05:43:45;;;;;;;15.37;6.10;;;;;;;;;;5110410;28;20423;-62
2022/12/05 05:46:13;;;;;;;22.10;6.57;;;;;;;;;;5110319;28;20206;-63
2022/12/05 05:48:41;;;;;;;18.93;6.07;;;;;;;;;;5110618;28;20208;-63
2022/12/05 05:51:09;;;;;;;18.77;6.37;;;;;;;;;;5110173;28;20237;-63
2022/12/05 05:53:36;;;;;;;15.13;5.50;;;;;;;;;;5110427;28;20213;-63
2022/12/05 05:56:04;;;;;;;20.37;6.50;;;;;;;;;;5110023;28;20229;-63
2022/12/05 05:58:31;;;;;;;21.00;6.60;;;;;;;;;;5110114;27;20296;-63
2022/12/05 06:01:03;;;;;;;11.23;6.30;;;;;;;;;;5110264;28;20228;-63
2022/12/05 06:03:30;;;;;;;24.93;5.83;;;;;;;;;;5109989;27;20204;-63
2022/12/05 06:05:59;;;;;;;16.53;5.50;;;;;;;;;;5109938;28;20245;-63
2022/12/05 06:08:26;;;;;;;13.17;6.90;;;;;;;;;;5109643;28;20510;-63
2022/12/05 06:10:53;;;;;;;21.03;6.87;;;;;;;;;;5109750;28;20237;-62
2022/12/05 06:13:20;;;;;;;19.57;6.97;;;;;;;;;;5109982;28;20212;-63
2022/12/05 06:15:48;;;;;;;15.83;7.30;;;;;;;;;;5109493;28;20599;-62
2022/12/05 06:18:15;;;;;;;15.40;5.70;;;;;;;;;;5109727;28;20228;-63
2022/12/05 06:20:42;;;;;;;12.57;5.77;;;;;;;;;;5109894;28;20213;-63
2022/12/05 06:23:10;;;;;;;22.20;7.03;;;;;;;;;;5109443;28;20200;-63
2022/12/05 06:25:37;;;;;;;17.27;7.33;;;;;;;;;;5109543;28;20263;-63
2022/12/05 06:28:05;;;;;;;17.30;6.67;;;;;;;;;;5109651;28;20237;-63
2022/12/05 06:30:32;;;;;;;12.73;6.20;;;;;;;;;;5109291;28;20556;-63
2022/12/05 06:32:59;;;;;;;10.20;5.97;;;;;;;;;;5109722;28;20576;-63
2022/12/05 06:35:26;;;;;;;13.40;6.20;;;;;;;;;;5109501;28;20202;-63
2022/12/05 06:37:53;;;;;;;11.37;5.73;;;;;;;;;;5109501;28;20262;-63
2022/12/05 06:40:22;;;;;;;12.23;5.40;;;;;;;;;;5109451;28;20225;-63
2022/12/05 06:42:49;;;;;;;12.43;6.77;;;;;;;;;;5109172;28;20668;-63
2022/12/05 06:45:16;;;;;;;13.67;6.27;;;;;;;;;;5109578;28;20635;-63
2022/12/05 06:47:43;;;;;;;14.80;5.63;;;;;;;;;;5109429;28;20216;-63
2022/12/05 06:50:10;;;;;;;12.00;6.17;;;;;;;;;;5109290;28;20209;-63
2022/12/05 06:52:37;;;;;;;9.33;5.00;;;;;;;;;;5109354;28;20210;-63
2022/12/05 06:55:05;;;;;;;15.37;7.17;;;;;;;;;;5108921;28;20598;-63
2022/12/05 06:57:33;;;;;;;18.90;5.70;;;;;;;;;;5109421;28;20212;-63
2022/12/05 07:02:41;;;;;;;14.23;5.43;;;;;;;;;;5109387;28;20208;-63
2022/12/05 07:05:09;;;;;;;17.93;6.67;;;;;;;;;;5109048;28;20215;-63
2022/12/05 07:07:36;;;;;;;11.23;5.50;;;;;;;;;;5109243;28;20572;-63
2022/12/05 07:10:03;;;;;;;12.77;5.60;;;;;;;;;;5109039;28;20214;-63
2022/12/05 07:12:30;;;;;;;11.27;5.90;;;;;;;;;;5108999;28;20291;-63
2022/12/05 07:14:59;;;;;;;9.60;4.80;;;;;;;;;;5109330;28;20685;-63
2022/12/05 07:17:26;;;;;;;12.97;5.33;;;;;;;;;;5109004;28;20213;-63
2022/12/05 07:19:53;;;;;;;12.07;6.77;;;;;;;;;;5108479;28;20225;-63
2022/12/05 07:22:21;;;;;;;14.30;6.67;;;;;;;;;;5109158;28;20297;-63
2022/12/05 07:24:49;;;;;;;18.07;5.93;;;;;;;;;;5108359;28;20563;-63
2022/12/05 07:27:16;;;;;;;12.83;5.13;;;;;;;;;;5110490;28;20572;-63
2022/12/05 07:29:43;;;;;;;11.57;4.93;;;;;;;;;;5113042;28;20700;-63
2022/12/05 07:32:11;;;;;;;11.43;5.37;;;;;;;;;;5112620;28;20667;-63
2022/12/05 07:34:39;;;;;;;12.40;5.03;;;;;;;;;;5113113;28;20570;-63
2022/12/05 07:37:06;;;;;;;11.40;5.60;;;;;;;;;;5112859;28;20206;-63
2022/12/05 07:39:34;;;;;;;11.30;4.80;;;;;;;;;;5112716;28;20228;-64
2022/12/05 07:42:01;;;;;;;17.23;6.43;;;;;;;;;;5112676;28;20214;-63
2022/12/05 07:44:28;;;;;;;12.30;6.63;;;;;;;;;;5112645;28;20208;-63
2022/12/05 07:46:55;;;;;;;12.13;5.83;;;;;;;;;;5112754;28;20209;-62
2022/12/05 07:49:23;;;;;;;12.83;6.67;;;;;;;;;;5112860;28;20221;-64
2022/12/05 07:51:51;;;;;;;12.60;6.73;;;;;;;;;;5112481;28;20206;-63
2022/12/05 07:54:18;;;;;;;8.97;5.30;;;;;;;;;;5112882;28;20232;-63
2022/12/05 07:56:45;;;;;;;14.93;6.17;;;;;;;;;;5112359;28;20221;-62
2022/12/05 07:59:12;;;;;;;14.73;6.50;;;;;;;;;;5112302;28;20240;-63
2022/12/05 08:01:39;;;;;;;13.47;5.93;;;;;;;;;;5112573;28;20207;-63
2022/12/05 08:04:07;;;;;;;9.87;5.53;;;;;;;;;;5112333;28;20200;-62
2022/12/05 08:06:35;;;;;;;15.57;7.20;;;;;;;;;;5112343;28;20243;-63
2022/12/05 08:09:02;;;;;;;15.37;7.43;;;;;;;;;;5112479;28;20201;-63
2022/12/05 08:11:31;;;;;;;19.53;6.27;;;;;;;;;;5111739;28;20212;-63
2022/12/05 08:13:58;;;;;;;15.43;6.47;;;;;;;;;;5112363;28;20270;-63
2022/12/05 08:16:26;;;;;;;12.87;6.33;;;;;;;;;;5112104;27;20209;-63
2022/12/05 08:18:54;;;;;;;12.57;6.17;;;;;;;;;;5112008;28;20212;-63
2022/12/05 08:21:21;;;;;;;18.70;7.23;;;;;;;;;;5111462;28;20221;-63
2022/12/05 08:23:50;;;;;;;11.50;5.43;;;;;;;;;;5111944;28;20216;-63
2022/12/05 08:26:19;;;;;;;13.37;6.30;;;;;;;;;;5112043;28;20209;-63
2022/12/05 08:28:46;;;;;;;17.13;7.30;;;;;;;;;;5111983;28;20286;-63
2022/12/05 08:31:15;;;;;;;14.60;6.63;;;;;;;;;;5111966;28;20668;-63
2022/12/05 08:33:42;;;;;;;15.20;6.00;;;;;;;;;;5112227;28;20216;-62
2022/12/05 08:36:10;;;;;;;20.40;7.33;;;;;;;;;;5111707;28;20209;-63
2022/12/05 08:38:37;;;;;;;18.77;7.07;;;;;;;;;;5111739;28;20207;-63
2022/12/05 08:41:06;;;;;;;16.00;6.77;;;;;;;;;;5111841;28;20230;-62
2022/12/05 08:43:34;;;;;;;15.50;6.87;;;;;;;;;;5111741;28;20602;-63
2022/12/05 08:46:04;;;;;;;16.03;5.77;;;;;;;;;;5112007;28;20207;-64
2022/12/05 08:48:32;;;;;;;18.17;7.67;;;;;;;;;;5111671;28;20675;-62
2022/12/05 08:50:59;;;;;;;16.40;6.93;;;;;;;;;;5111713;28;20270;-63
2022/12/05 08:53:29;;;;;;;12.20;6.67;;;;;;;;;;5111303;28;20209;-63
2022/12/05 08:55:56;;;;;;;16.93;6.77;;;;;;;;;;5111299;28;20231;-63
2022/12/05 08:58:25;;;;;;;11.13;6.57;;;;;;;;;;5111516;28;20212;-63
2022/12/05 09:00:52;;;;;;;16.77;7.40;;;;;;;;;;5111237;28;20242;-63
2022/12/05 09:03:19;;;;;;;15.23;7.00;;;;;;;;;;5111347;28;20352;-63
2022/12/05 09:05:46;;;;;;;17.60;6.80;;;;;;;;;;5110857;28;20224;-64
2022/12/05 09:08:13;;;;;;;17.40;7.50;;;;;;;;;;5111136;28;20205;-63
2022/12/05 09:10:40;;;;;;;16.57;6.63;;;;;;;;;;5111291;28;20208;-63
2022/12/05 09:13:07;;;;;;;15.50;6.40;;;;;;;;;;5111015;28;20201;-63
2022/12/05 09:15:38;;;;;;;18.83;6.37;;;;;;;;;;5111153;28;20204;-63
2022/12/05 09:18:05;;;;;;;12.47;6.60;;;;;;;;;;5111067;27;20628;-63
2022/12/05 09:20:32;;;;;;;18.97;7.13;;;;;;;;;;5110754;28;20233;-63
2022/12/05 09:22:59;;;;;;;18.97;6.30;;;;;;;;;;5111097;28;20222;-63
2022/12/05 09:25:26;;;;;;;14.60;6.27;;;;;;;;;;5110739;28;20213;-63
2022/12/05 09:27:53;;;;;;;16.60;6.27;;;;;;;;;;5111035;28;20235;-63
2022/12/05 09:30:21;;;;;;;15.93;6.27;;;;;;;;;;5110772;28;20197;-63
2022/12/05 09:32:49;;;;;;;14.60;5.70;;;;;;;;;;5110507;28;20535;-63
2022/12/05 09:35:16;;;;;;;13.47;5.80;;;;;;;;;;5110784;28;20232;-63
2022/12/05 09:37:43;;;;;;;9.40;5.90;;;;;;;;;;5110855;28;20201;-63
2022/12/05 09:40:16;;;;;;;13.03;5.97;;;;;;;;;;5110111;28;20565;-63
2022/12/05 09:42:47;;;;;;;13.47;5.30;;;;;;;;;;5110791;28;20250;-63
2022/12/05 09:45:32;;;;;;;6.53;4.37;;;;;;;;;;5110588;28;20215;-63
2022/12/05 09:48:05;;;;;;;15.10;6.53;;;;;;;;;;5110561;28;20206;-63
2022/12/05 09:50:34;;;;;;;10.70;5.17;;;;;;;;;;5109940;28;20217;-63
2022/12/05 09:53:04;;;;;;;10.60;4.70;;;;;;;;;;5110382;28;20224;-63
2022/12/05 09:55:35;;;;;;;9.03;5.20;;;;;;;;;;5109935;28;20298;-63
2022/12/05 09:58:04;;;;;;;9.90;4.73;;;;;;;;;;5110370;28;20210;-63
2022/12/05 10:00:32;;;;;;;10.33;5.27;;;;;;;;;;5110209;28;20232;-63
2022/12/05 10:03:06;;;;;;;11.37;4.90;;;;;;;;;;5110332;28;20216;-63
2022/12/05 10:05:39;;;;;;;10.97;5.67;;;;;;;;;;5110243;28;20216;-63
2022/12/05 10:08:09;;;;;;;15.23;6.63;;;;;;;;;;5109951;28;20217;-63
2022/12/05 10:10:44;;;;;;;15.53;6.20;;;;;;;;;;5109838;28;20213;-63
2022/12/05 10:13:16;;;;;;;14.57;5.70;;;;;;;;;;5109870;28;20205;-63
2022/12/05 10:15:46;;;;;;;8.77;4.73;;;;;;;;;;5110231;28;20205;-63
2022/12/05 10:18:19;;;;;;;10.50;4.83;;;;;;;;;;5109921;28;20304;-63
2022/12/05 10:20:48;;;;;;;10.87;5.37;;;;;;;;;;5109682;28;20961;-63
2022/12/05 10:23:18;;;;;;;11.27;5.30;;;;;;;;;;5109943;28;20213;-63
2022/12/05 10:25:45;;;;;;;9.40;5.30;;;;;;;;;;5109708;28;20220;-63
2022/12/05 10:28:15;;;;;;;11.70;5.23;;;;;;;;;;5109819;28;20203;-63
2022/12/05 10:30:42;;;;;;;11.27;5.00;;;;;;;;;;5109937;28;20200;-63
2022/12/05 10:33:13;;;;;;;13.10;5.43;;;;;;;;;;5109421;28;20213;-63
2022/12/05 10:35:42;;;;;;;8.40;4.90;;;;;;;;;;5109806;28;20287;-63
2022/12/05 10:38:11;;;;;;;16.87;5.43;;;;;;;;;;5109284;28;20612;-63
2022/12/05 10:40:40;;;;;;;13.33;5.50;;;;;;;;;;5109661;28;20581;-63
2022/12/05 10:43:08;;;;;;;13.13;5.80;;;;;;;;;;5109521;28;20718;-63
2022/12/05 10:45:37;;;;;;;12.53;6.07;;;;;;;;;;5109589;28;20217;-63
2022/12/05 10:48:05;;;;;;;10.63;4.70;;;;;;;;;;5109526;28;20201;-63
2022/12/05 10:50:33;;;;;;;11.33;5.17;;;;;;;;;;5109441;28;20536;-63
2022/12/05 10:53:02;;;;;;;13.20;5.77;;;;;;;;;;5109607;28;20214;-63
2022/12/05 10:55:31;;;;;;;13.73;6.17;;;;;;;;;;5109151;28;20714;-63
2022/12/05 10:58:10;;;;;;;14.03;5.93;;;;;;;;;;5109590;28;20209;-63
2022/12/05 11:00:42;;;;;;;14.63;5.70;;;;;;;;;;5109319;28;20286;-63
2022/12/05 11:03:21;;;;;;;10.17;5.73;;;;;;;;;;5112358;28;20202;-63
2022/12/05 11:05:50;;;;;;;14.07;5.60;;;;;;;;;;5113294;28;20220;-63
2022/12/05 11:08:23;;;;;;;9.63;5.20;;;;;;;;;;5113742;28;20205;-63
2022/12/05 11:10:58;;;;;;;12.67;5.73;;;;;;;;;;5113202;28;20693;-63
2022/12/05 11:13:26;;;;;;;8.10;4.30;;;;;;;;;;5113466;28;20585;-63
2022/12/05 11:15:53;;;;;;;7.83;4.43;;;;;;;;;;5113638;28;20225;-63
2022/12/05 11:18:27;;;;;;;8.90;4.57;;;;;;;;;;5113419;28;20206;-63
2022/12/05 11:20:54;;;;;;;10.17;4.47;;;;;;;;;;5113323;28;20225;-63
2022/12/05 11:23:27;;;;;;;14.83;4.87;;;;;;;;;;5113256;28;20789;-63
2022/12/05 11:25:55;;;;;;;8.43;4.97;;;;;;;;;;5113259;28;20218;-63
2022/12/05 11:28:40;;;;;;;10.60;4.73;;;;;;;;;;5113484;28;20752;-63
2022/12/05 11:31:20;;;;;;;11.00;4.57;;;;;;;;;;5113008;28;20415;-63
2022/12/05 11:33:59;;;;;;;10.40;5.20;;;;;;;;;;5113059;28;20220;-63
2022/12/05 11:36:30;;;;;;;10.13;5.07;;;;;;;;;;5112454;28;20304;-63
2022/12/05 11:38:59;;;;;;;13.77;5.47;;;;;;;;;;5113261;28;20592;-63
2022/12/05 11:41:33;;;;;;;13.00;5.70;;;;;;;;;;5112776;28;20229;-63
2022/12/05 11:44:08;;;;;;;11.30;5.03;;;;;;;;;;5113269;28;20204;-61
2022/12/05 11:46:40;;;;;;;12.63;5.87;;;;;;;;;;5112860;28;20584;-63
2022/12/05 11:49:13;;;;;;;10.43;4.83;;;;;;;;;;5112648;28;20212;-63
2022/12/05 11:51:42;;;;;;;11.17;5.13;;;;;;;;;;5112934;28;20202;-63
2022/12/05 11:54:22;;;;;;;14.93;6.00;;;;;;;;;;5112555;28;20220;-63
2022/12/05 11:56:51;;;;;;;10.73;5.20;;;;;;;;;;5112249;28;20686;-63
2022/12/05 11:59:28;;;;;;;16.07;5.50;;;;;;;;;;5112766;28;20216;-63
2022/12/05 12:01:59;;;;;;;9.13;5.57;;;;;;;;;;5112683;28;20225;-63
2022/12/05 12:04:43;;;;;;;13.57;5.73;;;;;;;;;;5112570;28;20216;-63
2022/12/05 12:07:20;;;;;;;10.53;5.40;;;;;;;;;;5112204;28;20246;-63
2022/12/05 12:09:53;;;;;;;10.47;5.30;;;;;;;;;;5112369;28;20216;-63
2022/12/05 12:12:25;;;;;;;12.57;5.90;;;;;;;;;;5112249;28;20209;-63
2022/12/05 12:14:58;;;;;;;11.53;5.30;;;;;;;;;;5112310;28;20213;-63
2022/12/05 12:17:29;;;;;;;14.80;6.00;;;;;;;;;;5112419;28;20214;-63
2022/12/05 12:20:04;;;;;;;12.27;5.80;;;;;;;;;;5112486;28;20225;-63
2022/12/05 12:22:39;;;;;;;9.27;5.20;;;;;;;;;;5112239;28;20201;-63
2022/12/05 12:25:15;;;;;;;11.13;5.33;;;;;;;;;;5112335;28;20212;-63
2022/12/05 12:27:51;;;;;;;9.57;5.30;;;;;;;;;;5112527;28;20213;-63
2022/12/05 12:30:20;;;;;;;9.47;5.33;;;;;;;;;;5112260;28;20201;-63
2022/12/05 12:32:55;;;;;;;12.77;5.30;;;;;;;;;;5111966;28;20818;-63
2022/12/05 12:35:29;;;;;;;15.33;4.83;;;;;;;;;;5112165;28;20204;-63
2022/12/05 12:38:05;;;;;;;11.37;5.37;;;;;;;;;;5112005;28;20216;-63
2022/12/05 12:40:36;;;;;;;10.00;4.67;;;;;;;;;;5111527;28;20317;-63
2022/12/05 12:43:08;;;;;;;12.73;5.90;;;;;;;;;;5111466;28;20213;-63
2022/12/05 12:45:50;;;;;;;11.87;5.10;;;;;;;;;;5111919;28;20206;-63
2022/12/05 12:48:23;;;;;;;11.07;4.40;;;;;;;;;;5112142;28;20224;-63
2022/12/05 12:50:52;;;;;;;8.87;4.83;;;;;;;;;;5111534;27;20198;-63
2022/12/05 12:53:28;;;;;;;11.67;5.80;;;;;;;;;;5111708;28;20209;-63
2022/12/05 12:56:00;;;;;;;10.67;5.20;;;;;;;;;;5111509;28;20236;-63
2022/12/05 12:58:34;;;;;;;12.40;5.50;;;;;;;;;;5111467;28;20264;-63
2022/12/05 13:01:04;;;;;;;8.63;4.83;;;;;;;;;;5111335;28;20221;-63
2022/12/05 13:03:35;;;;;;;8.50;4.50;;;;;;;;;;5111380;28;20221;-63
2022/12/05 13:06:05;;;;;;;10.80;5.70;;;;;;;;;;5111514;28;20275;-63
2022/12/05 13:08:34;;;;;;;10.20;5.27;;;;;;;;;;5111204;28;20226;-63
2022/12/05 13:11:04;;;;;;;11.67;5.17;;;;;;;;;;5111299;28;20568;-63
2022/12/05 13:13:35;;;;;;;16.50;5.70;;;;;;;;;;5111119;28;20218;-63
2022/12/05 13:16:05;;;;;;;9.37;5.17;;;;;;;;;;5110964;28;20209;-63
2022/12/05 13:18:32;;;;;;;20.77;5.97;;;;;;;;;;5111000;27;20723;-63
2022/12/05 13:21:00;;;;;;;11.10;5.07;;;;;;;;;;5111220;28;20221;-63
2022/12/05 13:23:28;;;;;;;10.47;4.93;;;;;;;;;;5110902;28;20202;-63
2022/12/05 13:25:57;;;;;;;15.10;6.07;;;;;;;;;;5110239;28;20807;-63
2022/12/05 13:28:28;;;;;;;11.53;5.73;;;;;;;;;;5110923;28;20216;-63
2022/12/05 13:31:06;;;;;;;11.70;5.00;;;;;;;;;;5110967;28;20205;-63
2022/12/05 13:33:34;;;;;;;13.23;6.07;;;;;;;;;;5110912;28;20209;-61
2022/12/05 13:44:33;;;;;;;10.13;4.63;;;;;;;;;;5110428;28;20251;-63
2022/12/05 13:47:01;;;;;;;10.63;4.80;;;;;;;;;;5110761;28;20671;-63
2022/12/05 13:49:31;;;;;;;13.17;5.50;;;;;;;;;;5110550;28;20209;-62
2022/12/05 13:52:04;;;;;;;9.97;5.17;;;;;;;;;;5110695;28;20205;-62
2022/12/05 13:54:33;;;;;;;12.00;5.37;;;;;;;;;;5110423;28;20221;-63
2022/12/05 13:57:01;;;;;;;12.83;5.47;;;;;;;;;;5110440;28;20217;-62
2022/12/05 13:59:47;;;;;;;11.60;5.30;;;;;;;;;;5110289;28;20617;-63
2022/12/05 14:02:29;;;;;;;8.37;4.87;;;;;;;;;;5110345;28;20589;-63
2022/12/05 14:04:57;;;;;;;11.87;5.50;;;;;;;;;;5110202;28;20218;-62
2022/12/05 14:07:37;;;;;;;14.57;6.23;;;;;;;;;;5110059;28;20245;-62
2022/12/05 14:10:05;;;;;;;12.77;6.03;;;;;;;;;;5110245;28;20258;-63
2022/12/05 14:12:49;;;;;;;11.53;4.90;;;;;;;;;;5109904;28;20591;-63
2022/12/05 14:15:24;;;;;;;13.97;6.87;;;;;;;;;;5110334;28;20209;-62
2022/12/05 14:17:56;;;;;;;10.07;5.07;;;;;;;;;;5110079;28;20201;-62
2022/12/05 14:20:26;;;;;;;11.13;5.37;;;;;;;;;;5110085;28;20216;-62
2022/12/05 14:23:07;;;;;;;11.90;5.07;;;;;;;;;;5109885;28;20602;-62
2022/12/05 14:25:42;;;;;;;12.67;5.30;;;;;;;;;;5109778;28;20579;-62
2022/12/05 14:28:15;;;;;;;15.60;5.90;;;;;;;;;;5109802;28;20209;-63
2022/12/05 14:30:46;;;;;;;11.10;6.03;;;;;;;;;;5110002;28;20233;-62
2022/12/05 14:33:14;;;;;;;19.23;6.07;;;;;;;;;;5109550;28;20198;-62
2022/12/05 14:35:45;;;;;;;12.10;6.13;;;;;;;;;;5109632;28;20602;-62
2022/12/05 14:38:21;;;;;;;14.23;6.53;;;;;;;;;;5109856;28;20228;-62
2022/12/05 14:40:48;;;;;;;12.17;5.70;;;;;;;;;;5109060;28;20232;-62
2022/12/05 14:43:18;;;;;;;11.00;5.10;;;;;;;;;;5109701;28;20686;-63
2022/12/05 14:45:56;;;;;;;10.97;5.37;;;;;;;;;;5109337;28;20218;-62
2022/12/05 14:48:26;;;;;;;12.57;6.37;;;;;;;;;;5109609;28;20685;-62
2022/12/05 14:50:56;;;;;;;10.07;5.70;;;;;;;;;;5109489;28;20209;-63
2022/12/05 14:53:26;;;;;;;14.27;5.53;;;;;;;;;;5109479;28;20220;-62
2022/12/05 14:55:54;;;;;;;8.70;5.07;;;;;;;;;;5109235;28;20233;-63
2022/12/05 14:58:26;;;;;;;10.67;5.80;;;;;;;;;;5109723;28;20209;-62
2022/12/05 15:00:55;;;;;;;11.47;5.23;;;;;;;;;;5109400;28;20205;-62
2022/12/05 15:03:23;;;;;;;12.17;5.20;;;;;;;;;;5109620;28;20206;-63
2022/12/05 15:05:51;;;;;;;13.03;5.43;;;;;;;;;;5109029;28;20201;-62